createdAt,value
2017-09-04T00:02:49.249Z,100361
2017-09-04T00:07:52.449Z,100370
2017-09-04T00:12:55.655Z,100357
2017-09-04T00:17:58.872Z,100361
2017-09-04T00:23:02.073Z,100362
2017-09-04T00:28:05.272Z,100368
2017-09-04T00:33:08.498Z,100355
2017-09-04T00:38:11.681Z,100366
2017-09-04T00:43:14.888Z,100361
2017-09-04T00:48:18.097Z,100367
2017-09-04T00:53:21.329Z,100365
2017-09-04T00:58:24.666Z,100362
2017-09-04T01:03:27.913Z,100363
2017-09-04T01:08:31.081Z,100369
2017-09-04T01:13:34.288Z,100364
2017-09-04T01:18:37.517Z,100361
2017-09-04T01:23:40.731Z,100361
2017-09-04T01:28:43.947Z,100364
2017-09-04T01:33:47.142Z,100343
2017-09-04T01:38:50.344Z,100350
2017-09-04T01:43:53.585Z,100345
2017-09-04T01:48:56.797Z,100349
2017-09-04T01:54:00.163Z,100350
2017-09-04T01:59:03.377Z,100352
2017-09-04T02:04:06.959Z,100355
2017-09-04T02:09:10.181Z,100361
2017-09-04T02:14:13.407Z,100352
2017-09-04T02:19:16.716Z,100354
2017-09-04T02:24:20.097Z,100354
2017-09-04T02:29:23.373Z,100357
2017-09-04T02:34:26.650Z,100352
2017-09-04T02:39:29.959Z,100355
2017-09-04T02:44:33.164Z,100352
2017-09-04T02:49:36.347Z,100345
2017-09-04T02:54:39.551Z,100340
2017-09-04T02:59:42.764Z,100341
2017-09-04T03:04:45.976Z,100345
2017-09-04T03:09:49.215Z,100348
2017-09-04T03:14:52.434Z,100349
2017-09-04T03:19:55.676Z,100341
2017-09-04T03:24:58.867Z,100349
2017-09-04T03:30:02.306Z,100363
2017-09-04T03:35:05.521Z,100358
2017-09-04T03:40:08.797Z,100351
2017-09-04T03:45:11.979Z,100362
2017-09-04T03:50:15.176Z,100356
2017-09-04T03:55:18.401Z,100356
2017-09-04T04:00:21.612Z,100365
2017-09-04T04:05:24.789Z,100365
2017-09-04T04:10:27.953Z,100364
2017-09-04T04:15:31.260Z,100367
2017-09-04T04:20:34.456Z,100367
2017-09-04T04:25:37.652Z,100372
2017-09-04T04:30:40.838Z,100375
2017-09-04T04:35:44.060Z,100369
2017-09-04T04:40:47.262Z,100376
2017-09-04T04:45:50.480Z,100385
2017-09-04T04:50:53.734Z,100388
2017-09-04T04:55:56.942Z,100392
2017-09-04T05:01:00.158Z,100398
2017-09-04T05:06:03.379Z,100399
2017-09-04T05:11:06.607Z,100391
2017-09-04T05:16:09.812Z,100388
2017-09-04T05:21:13.033Z,100402
2017-09-04T05:26:16.259Z,100401
2017-09-04T05:31:19.499Z,100404
2017-09-04T05:36:22.706Z,100398
2017-09-04T05:41:26.049Z,100402
2017-09-04T05:46:29.258Z,100398
2017-09-04T05:51:32.494Z,100403
2017-09-04T05:56:35.729Z,100422
2017-09-04T06:01:38.926Z,100421
2017-09-04T06:06:42.122Z,100426
2017-09-04T06:11:45.400Z,100427
2017-09-04T06:16:48.602Z,100433
2017-09-04T06:21:51.810Z,100426
2017-09-04T06:26:55.046Z,100432
2017-09-04T06:31:58.250Z,100429
2017-09-04T06:37:01.442Z,100422
2017-09-04T06:42:04.658Z,100429
2017-09-04T06:47:07.854Z,100418
2017-09-04T06:52:11.062Z,100425
2017-09-04T06:57:14.312Z,100429
2017-09-04T07:02:17.530Z,100433
2017-09-04T07:07:20.735Z,100429
2017-09-04T07:12:23.935Z,100446
2017-09-04T07:17:27.171Z,100447
2017-09-04T07:22:30.386Z,100445
2017-09-04T07:27:33.550Z,100441
2017-09-04T07:32:36.787Z,100449
2017-09-04T07:37:39.997Z,100448
2017-09-04T07:42:43.230Z,100454
2017-09-04T07:47:46.516Z,100459
2017-09-04T07:52:49.731Z,100460
2017-09-04T07:57:52.909Z,100473
2017-09-04T08:02:56.144Z,100469
2017-09-04T08:07:59.341Z,100478
2017-09-04T08:13:02.549Z,100485
2017-09-04T08:18:05.753Z,100491
2017-09-04T08:23:08.988Z,100494
2017-09-04T08:28:12.220Z,100489
2017-09-04T08:33:15.437Z,100495
2017-09-04T08:38:18.713Z,100502
2017-09-04T08:43:21.964Z,100511
2017-09-04T08:48:25.173Z,100505
2017-09-04T08:53:28.440Z,100512
2017-09-04T08:58:31.662Z,100522
2017-09-04T09:03:34.898Z,100521
2017-09-04T09:08:38.136Z,100523
2017-09-04T09:13:41.320Z,100526
2017-09-04T09:18:44.540Z,100519
2017-09-04T09:23:47.750Z,100527
2017-09-04T09:28:50.968Z,100524
2017-09-04T09:33:54.203Z,100524
2017-09-04T09:38:57.412Z,100530
2017-09-04T09:44:00.626Z,100525
2017-09-04T09:49:03.825Z,100535
2017-09-04T09:54:07.069Z,100538
2017-09-04T09:59:10.306Z,100533
2017-09-04T10:04:13.527Z,100544
2017-09-04T10:09:16.730Z,100537
2017-09-04T10:14:19.946Z,100531
2017-09-04T10:19:23.178Z,100535
2017-09-04T10:24:26.405Z,100527
2017-09-04T10:29:29.611Z,100528
2017-09-04T10:34:32.833Z,100541
2017-09-04T10:39:36.054Z,100524
2017-09-04T10:44:39.256Z,100534
2017-09-04T10:49:42.472Z,100532
2017-09-04T10:54:45.670Z,100522
2017-09-04T10:59:48.911Z,100527
2017-09-04T11:04:52.124Z,100524
2017-09-04T11:09:56.232Z,100524
2017-09-04T11:14:59.429Z,100527
2017-09-04T11:20:02.701Z,100521
2017-09-04T11:25:05.882Z,100536
2017-09-04T11:30:09.097Z,100540
2017-09-04T11:35:12.292Z,100531
2017-09-04T11:40:15.494Z,100525
2017-09-04T11:45:18.735Z,100542
2017-09-04T11:50:21.937Z,100540
2017-09-04T11:55:25.198Z,100543
2017-09-04T12:00:28.631Z,100548
2017-09-04T12:05:31.837Z,100548
2017-09-04T12:10:35.088Z,100533
2017-09-04T12:15:38.303Z,100537
2017-09-04T12:20:41.523Z,100530
2017-09-04T12:25:44.835Z,100526
2017-09-04T12:30:48.001Z,100524
2017-09-04T12:35:51.226Z,100525
2017-09-04T12:40:54.447Z,100511
2017-09-04T12:45:57.661Z,100519
2017-09-04T12:51:00.856Z,100511
2017-09-04T12:56:04.105Z,100514
2017-09-04T13:01:07.318Z,100518
2017-09-04T13:06:10.518Z,100515
2017-09-04T13:11:19.377Z,100524
2017-09-04T13:16:28.178Z,100531
2017-09-04T13:21:36.940Z,100525
2017-09-04T13:26:45.675Z,100512
2017-09-04T13:31:54.306Z,100515
2017-09-04T13:37:03.085Z,100512
2017-09-04T13:42:11.759Z,100515
2017-09-04T14:03:36.549Z,100522
2017-09-04T14:08:45.410Z,100534
2017-09-04T14:13:54.037Z,100524
2017-09-04T14:18:57.214Z,100524
2017-09-04T14:24:00.428Z,100524
2017-09-04T14:29:03.666Z,100530
2017-09-04T14:34:06.875Z,100528
2017-09-04T14:39:10.094Z,100536
2017-09-04T14:44:15.277Z,100536
2017-09-04T14:49:18.837Z,100539
2017-09-04T14:54:22.043Z,100530
2017-09-04T14:59:25.267Z,100528
2017-09-04T15:04:28.491Z,100540
2017-09-04T15:09:31.746Z,100550
2017-09-04T15:14:35.277Z,100549
2017-09-04T15:19:38.568Z,100540
2017-09-04T15:24:41.773Z,100547
2017-09-04T15:29:44.980Z,100550
2017-09-04T15:34:48.192Z,100548
2017-09-04T15:39:51.415Z,100547
2017-09-04T15:44:54.625Z,100556
2017-09-04T15:49:57.836Z,100553
2017-09-04T15:55:01.054Z,100557
2017-09-04T16:00:04.247Z,100569
2017-09-04T16:05:07.456Z,100570
2017-09-04T16:10:11.467Z,100578
2017-09-04T16:15:17.520Z,100574
2017-09-04T16:20:23.690Z,100565
2017-09-04T16:25:28.158Z,100567
2017-09-04T16:36:14.973Z,100564
2017-09-04T16:41:19.017Z,100569
2017-09-04T16:46:23.598Z,100574
2017-09-04T16:51:32.172Z,100579
2017-09-04T16:56:48.120Z,100596
2017-09-04T17:01:51.450Z,100611
2017-09-04T17:06:54.686Z,100618
2017-09-04T17:12:09.590Z,100620
2017-09-04T17:17:13.314Z,100613
2017-09-04T17:22:17.191Z,100615
2017-09-04T17:27:20.441Z,100620
2017-09-04T17:32:23.661Z,100619
2017-09-04T17:37:26.835Z,100615
2017-09-04T17:42:30.075Z,100627
2017-09-04T17:47:33.304Z,100625
2017-09-04T17:52:36.512Z,100635
2017-09-04T17:57:39.741Z,100642
2017-09-04T18:02:43.008Z,100642
2017-09-04T18:07:46.173Z,100652
2017-09-04T18:12:49.367Z,100663
2017-09-04T18:17:52.583Z,100664
2017-09-04T18:22:55.755Z,100669
2017-09-04T18:27:58.974Z,100676
2017-09-04T18:33:02.170Z,100673
2017-09-04T18:38:05.370Z,100672
2017-09-04T18:43:08.612Z,100665
2017-09-04T18:48:11.946Z,100668
2017-09-04T18:53:15.238Z,100681
2017-09-04T18:58:18.463Z,100680
2017-09-04T19:03:21.683Z,100685
2017-09-04T19:08:24.911Z,100681
2017-09-04T19:13:28.168Z,100681
2017-09-04T19:18:31.357Z,100688
2017-09-04T19:23:34.604Z,100698
2017-09-04T19:28:37.852Z,100693
2017-09-04T19:33:41.115Z,100689
2017-09-04T19:38:44.342Z,100690
2017-09-04T19:43:47.550Z,100707
2017-09-04T19:48:50.855Z,100705
2017-09-04T19:53:54.135Z,100703
2017-09-04T19:58:57.409Z,100708
2017-09-04T20:04:00.671Z,100710
2017-09-04T20:09:03.865Z,100716
2017-09-04T20:14:07.096Z,100715
2017-09-04T20:19:10.307Z,100718
2017-09-04T20:24:13.525Z,100719
2017-09-04T20:29:16.696Z,100735
2017-09-04T20:34:19.912Z,100727
2017-09-04T20:39:23.118Z,100742
2017-09-04T20:44:26.335Z,100733
2017-09-04T20:49:29.615Z,100736
2017-09-04T20:54:32.841Z,100733
2017-09-04T20:59:36.194Z,100736
2017-09-04T21:04:39.608Z,100740
2017-09-04T21:09:42.803Z,100740
2017-09-04T21:14:46.030Z,100733
2017-09-04T21:19:49.203Z,100733
2017-09-04T21:24:52.429Z,100739
2017-09-04T21:29:55.639Z,100734
2017-09-04T21:34:58.959Z,100739
2017-09-04T21:40:02.187Z,100727
2017-09-04T21:45:05.441Z,100732
2017-09-04T21:50:08.664Z,100727
2017-09-04T21:55:11.899Z,100721
2017-09-04T22:00:15.159Z,100736
2017-09-04T22:05:18.384Z,100731
2017-09-04T22:10:21.745Z,100744
2017-09-04T22:15:24.956Z,100747
2017-09-04T22:20:28.183Z,100745
2017-09-04T22:25:31.365Z,100741
2017-09-04T22:30:34.608Z,100753
2017-09-04T22:35:37.837Z,100753
2017-09-04T22:40:41.062Z,100751
2017-09-04T22:45:44.291Z,100762
2017-09-04T22:50:47.501Z,100762
2017-09-04T22:55:50.843Z,100761
2017-09-04T23:00:54.047Z,100760
2017-09-04T23:05:57.268Z,100762
2017-09-04T23:11:00.485Z,100769
2017-09-04T23:16:03.701Z,100767
2017-09-04T23:21:06.913Z,100772
2017-09-04T23:26:10.143Z,100770
2017-09-04T23:31:13.343Z,100774
2017-09-04T23:36:16.611Z,100784
2017-09-04T23:41:19.825Z,100796
2017-09-04T23:46:23.047Z,100793
2017-09-04T23:51:26.316Z,100790
2017-09-04T23:56:29.525Z,100803
